createdAt,value
2018-06-11T00:00:58.607Z,17.80
2018-06-11T00:03:26.688Z,16.70
2018-06-11T00:05:54.812Z,17.63
2018-06-11T00:08:22.945Z,16.80
2018-06-11T00:10:51.059Z,16.80
2018-06-11T00:13:19.144Z,16.40
2018-06-11T00:15:47.220Z,16.70
2018-06-11T00:18:15.316Z,16.83
2018-06-11T00:20:43.376Z,16.40
2018-06-11T00:23:11.452Z,16.70
2018-06-11T00:25:39.540Z,17.60
2018-06-11T00:28:07.694Z,16.23
2018-06-11T00:30:35.792Z,16.57
2018-06-11T00:33:03.919Z,17.20
2018-06-11T00:35:32.079Z,17.37
2018-06-11T00:38:00.291Z,18.70
2018-06-11T00:40:28.405Z,16.40
2018-06-11T00:42:56.461Z,16.27
2018-06-11T00:45:24.579Z,17.03
2018-06-11T00:47:52.692Z,15.57
2018-06-11T00:50:20.808Z,16.47
2018-06-11T00:52:48.872Z,15.73
2018-06-11T00:55:16.947Z,17.43
2018-06-11T00:57:44.999Z,16.67
2018-06-11T01:00:13.060Z,15.40
2018-06-11T01:02:41.152Z,15.60
2018-06-11T01:05:09.212Z,15.50
2018-06-11T01:07:37.299Z,15.77
2018-06-11T01:10:05.360Z,17.43
2018-06-11T01:12:33.438Z,17.40
2018-06-11T01:15:01.515Z,15.87
2018-06-11T01:17:29.590Z,18.17
2018-06-11T01:19:57.667Z,17.93
2018-06-11T01:22:25.719Z,15.80
2018-06-11T01:24:53.809Z,16.07
2018-06-11T01:27:22.020Z,16.80
2018-06-11T01:29:50.076Z,15.20
2018-06-11T01:32:18.143Z,16.90
2018-06-11T01:34:46.300Z,16.33
2018-06-11T01:37:14.337Z,16.50
2018-06-11T01:39:42.415Z,15.20
2018-06-11T01:42:10.515Z,16.20
2018-06-11T01:44:38.588Z,17.30
2018-06-11T01:47:06.645Z,15.70
2018-06-11T01:49:34.741Z,16.80
2018-06-11T01:52:02.817Z,16.23
2018-06-11T01:54:30.905Z,14.77
2018-06-11T01:56:58.977Z,14.67
2018-06-11T01:59:27.064Z,15.37
2018-06-11T02:01:55.129Z,14.87
2018-06-11T02:04:23.183Z,16.90
2018-06-11T02:06:51.259Z,15.77
2018-06-11T02:09:19.335Z,16.67
2018-06-11T02:11:47.405Z,15.80
2018-06-11T02:14:15.454Z,17.07
2018-06-11T02:16:43.562Z,18.83
2018-06-11T02:19:11.629Z,17.37
2018-06-11T02:21:39.682Z,18.77
2018-06-11T02:24:07.777Z,19.33
2018-06-11T02:26:35.971Z,20.33
2018-06-11T02:29:04.084Z,19.33
2018-06-11T02:31:32.237Z,18.93
2018-06-11T02:34:00.366Z,20.00
2018-06-11T02:36:28.487Z,19.97
2018-06-11T02:38:56.554Z,18.87
2018-06-11T02:41:24.611Z,18.47
2018-06-11T02:43:52.702Z,19.20
2018-06-11T02:46:20.801Z,19.03
2018-06-11T02:48:48.966Z,18.43
2018-06-11T02:51:17.041Z,20.10
2018-06-11T02:53:45.113Z,19.60
2018-06-11T02:56:13.208Z,19.97
2018-06-11T02:58:41.294Z,19.00
2018-06-11T03:01:09.374Z,18.63
2018-06-11T03:03:37.479Z,19.93
2018-06-11T03:06:05.657Z,19.30
2018-06-11T03:08:33.828Z,18.67
2018-06-11T03:11:01.986Z,19.27
2018-06-11T03:13:30.109Z,18.07
2018-06-11T03:15:58.239Z,18.97
2018-06-11T03:18:26.328Z,18.77
2018-06-11T03:20:54.713Z,17.63
2018-06-11T03:23:22.835Z,16.57
2018-06-11T03:25:50.948Z,17.50
2018-06-11T03:28:19.039Z,17.67
2018-06-11T03:30:47.105Z,16.10
2018-06-11T03:33:15.175Z,16.10
2018-06-11T03:35:43.323Z,17.90
2018-06-11T03:38:11.375Z,16.17
2018-06-11T03:40:39.569Z,15.83
2018-06-11T03:43:07.641Z,16.43
2018-06-11T03:45:35.776Z,15.13
2018-06-11T03:48:03.898Z,17.67
2018-06-11T03:50:32.020Z,16.67
2018-06-11T03:53:00.429Z,16.13
2018-06-11T03:55:28.528Z,14.73
2018-06-11T03:57:56.640Z,14.60
2018-06-11T04:00:24.742Z,13.20
2018-06-11T04:02:52.930Z,14.40
2018-06-11T04:05:21.023Z,14.23
2018-06-11T04:07:49.108Z,14.33
2018-06-11T04:10:17.305Z,14.43
2018-06-11T04:12:45.360Z,12.70
2018-06-11T04:15:13.436Z,13.07
2018-06-11T04:17:41.524Z,13.63
2018-06-11T04:20:09.610Z,13.53
2018-06-11T04:22:37.692Z,13.03
2018-06-11T04:25:05.836Z,13.60
2018-06-11T04:27:33.937Z,14.20
2018-06-11T04:30:02.066Z,13.97
2018-06-11T04:32:30.200Z,14.00
2018-06-11T04:34:58.333Z,12.70
2018-06-11T04:37:26.396Z,12.40
2018-06-11T04:39:54.595Z,13.00
2018-06-11T04:42:22.721Z,13.17
2018-06-11T04:44:50.817Z,14.43
2018-06-11T04:47:18.885Z,13.50
2018-06-11T04:49:46.980Z,13.87
2018-06-11T04:52:15.026Z,13.40
2018-06-11T04:54:43.091Z,13.77
2018-06-11T04:57:11.164Z,13.33
2018-06-11T04:59:39.225Z,14.83
2018-06-11T05:02:07.494Z,14.37
2018-06-11T05:04:35.539Z,13.63
2018-06-11T05:07:03.657Z,12.83
2018-06-11T05:09:31.728Z,14.30
2018-06-11T05:11:59.819Z,13.10
2018-06-11T05:14:27.908Z,12.60
2018-06-11T05:16:56.045Z,13.87
2018-06-11T05:19:24.148Z,13.30
2018-06-11T05:21:52.243Z,12.47
2018-06-11T05:24:20.353Z,13.63
2018-06-11T05:26:48.427Z,13.20
2018-06-11T05:29:16.603Z,12.83
2018-06-11T05:31:44.696Z,12.37
2018-06-11T05:34:12.825Z,13.73
2018-06-11T05:36:40.919Z,14.67
2018-06-11T05:39:09.010Z,13.50
2018-06-11T05:41:37.162Z,13.43
2018-06-11T05:44:05.623Z,13.60
2018-06-11T05:46:33.703Z,13.33
2018-06-11T05:49:02.019Z,13.07
2018-06-11T05:51:30.448Z,13.27
2018-06-11T05:53:58.575Z,13.47
2018-06-11T05:56:26.636Z,12.80
2018-06-11T05:58:54.714Z,12.60
2018-06-11T06:01:22.824Z,12.43
2018-06-11T06:03:50.905Z,12.43
2018-06-11T06:06:18.973Z,12.10
2018-06-11T06:08:47.145Z,11.50
2018-06-11T06:11:15.278Z,12.37
2018-06-11T06:13:43.418Z,11.47
2018-06-11T06:16:11.566Z,12.50
2018-06-11T06:18:39.659Z,11.73
2018-06-11T06:21:07.727Z,12.67
2018-06-11T06:23:35.780Z,12.50
2018-06-11T06:26:04.288Z,12.37
2018-06-11T06:28:32.356Z,13.10
2018-06-11T06:31:00.484Z,12.45
2018-06-11T06:33:28.549Z,12.60
2018-06-11T06:35:56.611Z,12.28
2018-06-11T06:38:25.342Z,13.00
2018-06-11T06:40:53.404Z,12.40
2018-06-11T06:43:21.476Z,12.65
2018-06-11T06:45:49.540Z,13.35
2018-06-11T06:48:18.499Z,12.73
2018-06-11T06:50:46.696Z,13.67
2018-06-11T06:53:14.767Z,11.43
2018-06-11T06:55:42.836Z,12.65
2018-06-11T06:58:10.980Z,12.80
2018-06-11T07:00:39.108Z,11.75
2018-06-11T07:03:07.281Z,12.60
2018-06-11T07:05:35.376Z,12.28
2018-06-11T07:08:03.476Z,12.53
2018-06-11T07:10:31.526Z,11.75
2018-06-11T07:12:59.607Z,10.93
2018-06-11T07:15:27.716Z,12.10
2018-06-11T07:17:55.891Z,11.05
2018-06-11T07:20:23.973Z,11.33
2018-06-11T07:22:52.020Z,11.38
2018-06-11T07:25:20.127Z,10.82
2018-06-11T07:28:06.005Z,10.65
2018-06-11T07:30:34.152Z,9.53
2018-06-11T07:33:02.202Z,9.93
2018-06-11T07:35:30.266Z,10.88
2018-06-11T07:37:58.355Z,13.70
2018-06-11T07:40:26.423Z,12.45
2018-06-11T07:42:54.545Z,10.03
2018-06-11T07:45:22.631Z,10.53
2018-06-11T07:47:50.679Z,10.80
2018-06-11T07:50:18.743Z,11.43
2018-06-11T07:52:46.807Z,11.83
2018-06-11T07:55:14.954Z,12.18
2018-06-11T07:57:43.012Z,10.95
2018-06-11T08:00:11.451Z,10.75
2018-06-11T08:02:39.538Z,8.93
2018-06-11T08:05:07.584Z,9.35
2018-06-11T08:07:36.636Z,9.63
2018-06-11T08:10:04.726Z,11.10
2018-06-11T08:12:33.090Z,9.13
2018-06-11T08:15:01.175Z,8.90
2018-06-11T08:17:29.307Z,9.08
2018-06-11T08:19:57.370Z,10.45
2018-06-11T08:22:25.442Z,8.98
2018-06-11T08:24:53.510Z,9.15
2018-06-11T08:27:21.671Z,7.85
2018-06-11T08:29:49.762Z,9.20
2018-06-11T08:32:17.840Z,7.35
2018-06-11T08:34:45.932Z,7.40
2018-06-11T08:37:14.142Z,7.75
2018-06-11T08:39:42.269Z,7.80
2018-06-11T08:42:10.431Z,7.87
2018-06-11T08:44:38.523Z,7.80
2018-06-11T08:47:06.612Z,8.00
2018-06-11T08:49:34.702Z,7.40
2018-06-11T08:52:02.853Z,7.28
2018-06-11T08:54:30.965Z,8.18
2018-06-11T08:56:59.060Z,6.90
2018-06-11T08:59:27.159Z,8.15
2018-06-11T09:01:55.515Z,9.23
2018-06-11T09:04:23.624Z,8.98
2018-06-11T09:06:51.815Z,8.80
2018-06-11T09:09:20.004Z,8.75
2018-06-11T09:11:48.080Z,8.28
2018-06-11T09:14:16.151Z,8.35
2018-06-11T09:16:44.247Z,7.87
2018-06-11T09:19:12.348Z,7.83
2018-06-11T09:21:40.543Z,7.55
2018-06-11T09:24:08.607Z,7.37
2018-06-11T09:26:36.710Z,8.30
2018-06-11T09:29:04.755Z,7.58
2018-06-11T09:31:32.868Z,8.80
2018-06-11T09:34:00.950Z,7.97
2018-06-11T09:36:29.081Z,7.95
2018-06-11T09:38:57.217Z,9.05
2018-06-11T09:41:25.449Z,7.83
2018-06-11T09:43:53.647Z,8.65
2018-06-11T09:46:21.760Z,8.15
2018-06-11T09:48:49.879Z,9.48
2018-06-11T09:51:17.991Z,9.35
2018-06-11T09:53:46.088Z,8.03
2018-06-11T09:56:14.165Z,7.47
2018-06-11T09:58:42.497Z,8.73
2018-06-11T10:01:10.594Z,7.95
2018-06-11T10:03:38.667Z,7.67
2018-06-11T10:06:06.739Z,7.37
2018-06-11T10:08:34.839Z,7.80
2018-06-11T10:11:03.050Z,7.47
2018-06-11T10:13:31.216Z,7.42
2018-06-11T10:15:59.366Z,8.10
2018-06-11T10:18:27.465Z,7.47
2018-06-11T10:20:55.553Z,8.43
2018-06-11T10:23:23.667Z,8.03
2018-06-11T10:25:51.768Z,8.30
2018-06-11T10:28:19.837Z,8.03
2018-06-11T10:30:48.083Z,8.83
2018-06-11T10:33:16.175Z,7.83
2018-06-11T10:35:44.229Z,7.65
2018-06-11T10:38:12.297Z,9.33
2018-06-11T10:40:40.587Z,9.25
2018-06-11T10:43:08.943Z,8.68
2018-06-11T10:45:37.090Z,8.68
2018-06-11T10:48:05.523Z,10.68
2018-06-11T10:50:33.581Z,9.33
2018-06-11T10:53:01.664Z,10.20
2018-06-11T10:55:29.770Z,8.90
2018-06-11T10:57:57.893Z,9.30
2018-06-11T11:00:26.231Z,10.30
2018-06-11T11:02:54.314Z,9.90
2018-06-11T11:05:22.454Z,10.90
2018-06-11T11:07:50.568Z,10.70
2018-06-11T11:10:18.683Z,10.68
2018-06-11T11:12:46.810Z,10.00
2018-06-11T11:15:14.925Z,10.03
2018-06-11T11:17:43.041Z,9.33
2018-06-11T11:20:11.117Z,9.85
2018-06-11T11:22:39.227Z,9.43
2018-06-11T11:25:07.330Z,9.03
2018-06-11T11:27:35.771Z,10.32
2018-06-11T11:30:05.164Z,11.10
2018-06-11T11:32:33.248Z,10.63
2018-06-11T11:35:01.401Z,8.48
2018-06-11T11:37:29.529Z,9.00
2018-06-11T11:39:57.629Z,8.80
2018-06-11T11:42:25.728Z,9.33
2018-06-11T11:44:53.865Z,9.93
2018-06-11T11:47:22.324Z,10.38
2018-06-11T11:49:50.420Z,9.93
2018-06-11T11:52:18.493Z,9.95
2018-06-11T11:54:46.621Z,10.43
2018-06-11T11:57:15.042Z,10.55
2018-06-11T11:59:43.123Z,8.83
2018-06-11T12:02:11.200Z,7.83
2018-06-11T12:04:39.595Z,7.55
2018-06-11T12:07:07.737Z,10.10
2018-06-11T12:09:35.810Z,9.55
2018-06-11T12:12:03.893Z,8.73
2018-06-11T12:14:32.439Z,8.68
2018-06-11T12:17:00.573Z,8.28
2018-06-11T12:19:28.734Z,7.50
2018-06-11T12:21:56.818Z,7.42
2018-06-11T12:24:24.921Z,8.90
2018-06-11T12:26:52.993Z,7.80
2018-06-11T12:29:21.126Z,8.25
2018-06-11T12:31:49.283Z,9.73
2018-06-11T12:34:17.388Z,9.65
2018-06-11T12:36:45.495Z,9.65
2018-06-11T12:39:13.656Z,9.85
2018-06-11T12:41:41.724Z,9.08
2018-06-11T12:44:09.809Z,9.03
2018-06-11T12:46:37.892Z,9.00
2018-06-11T12:49:05.952Z,8.95
2018-06-11T12:51:34.060Z,9.73
2018-06-11T12:54:02.143Z,9.50
2018-06-11T12:56:30.259Z,8.38
2018-06-11T12:58:58.567Z,12.07
2018-06-11T13:01:26.667Z,10.88
2018-06-11T13:03:54.732Z,10.90
2018-06-11T13:06:22.947Z,10.35
2018-06-11T13:08:51.084Z,10.25
2018-06-11T13:11:19.150Z,11.55
2018-06-11T13:13:47.207Z,10.98
2018-06-11T13:16:15.334Z,10.98
2018-06-11T13:18:43.429Z,10.05
2018-06-11T13:21:11.467Z,9.78
2018-06-11T13:23:39.569Z,11.90
2018-06-11T13:26:07.799Z,11.22
2018-06-11T13:28:35.874Z,12.85
2018-06-11T13:31:03.952Z,10.95
2018-06-11T13:33:32.055Z,12.20
2018-06-11T13:36:00.100Z,12.20
2018-06-11T13:38:28.200Z,11.50
2018-06-11T13:40:56.291Z,11.40
2018-06-11T13:43:24.363Z,11.48
2018-06-11T13:45:52.450Z,9.70
2018-06-11T13:48:20.560Z,12.05
2018-06-11T13:50:48.644Z,12.73
2018-06-11T13:53:16.743Z,10.18
2018-06-11T13:55:44.823Z,9.03
2018-06-11T13:58:13.764Z,10.00
2018-06-11T14:00:41.817Z,8.90
2018-06-11T14:03:09.903Z,9.50
2018-06-11T14:05:38.023Z,10.28
2018-06-11T14:08:07.108Z,9.90
2018-06-11T14:10:35.177Z,8.50
2018-06-11T14:13:03.323Z,7.78
2018-06-11T14:15:31.391Z,10.00
2018-06-11T14:17:59.506Z,11.18
2018-06-11T14:20:27.920Z,10.63
2018-06-11T14:22:56.005Z,11.40
2018-06-11T14:25:24.089Z,10.32
2018-06-11T14:27:52.481Z,10.70
2018-06-11T14:30:22.695Z,10.25
2018-06-11T14:32:50.759Z,10.13
2018-06-11T14:35:19.697Z,8.90
2018-06-11T14:37:47.795Z,8.65
2018-06-11T14:40:16.795Z,6.72
2018-06-11T14:42:45.037Z,8.65
2018-06-11T14:45:13.067Z,9.45
2018-06-11T14:47:42.147Z,9.43
2018-06-11T14:50:10.189Z,8.23
2018-06-11T14:52:39.097Z,8.23
2018-06-11T14:55:08.743Z,10.10
2018-06-11T14:57:37.999Z,9.85
2018-06-11T15:00:06.251Z,10.28
2018-06-11T15:02:34.317Z,9.13
2018-06-11T15:05:03.180Z,8.13
2018-06-11T15:07:32.632Z,9.65
2018-06-11T15:10:03.782Z,8.58
2018-06-11T15:12:41.731Z,8.23
2018-06-11T15:15:11.043Z,8.08
2018-06-11T15:17:40.677Z,8.23
2018-06-11T15:20:08.897Z,7.80
2018-06-11T15:22:36.946Z,6.65
2018-06-11T15:25:05.556Z,8.40
2018-06-11T15:27:33.631Z,8.90
2018-06-11T15:30:01.699Z,7.50
2018-06-11T15:32:29.741Z,8.40
2018-06-11T15:34:57.817Z,8.23
2018-06-11T15:37:26.061Z,7.15
2018-06-11T15:39:54.132Z,7.55
2018-06-11T15:42:22.204Z,8.25
2018-06-11T15:44:52.100Z,6.50
2018-06-11T15:47:20.190Z,7.20
2018-06-11T15:49:48.367Z,8.73
2018-06-11T15:52:16.423Z,9.23
2018-06-11T15:54:44.537Z,8.85
2018-06-11T15:57:13.300Z,9.08
2018-06-11T15:59:41.396Z,8.60
2018-06-11T16:02:09.864Z,8.25
2018-06-11T16:04:38.916Z,8.25
2018-06-11T16:07:06.960Z,7.53
2018-06-11T16:09:35.637Z,8.98
2018-06-11T16:12:03.851Z,8.50
2018-06-11T16:14:31.903Z,9.18
2018-06-11T16:17:00.065Z,9.53
2018-06-11T16:19:28.396Z,10.32
2018-06-11T16:21:56.540Z,9.38
2018-06-11T16:24:24.595Z,9.28
2018-06-11T16:26:52.680Z,8.68
2018-06-11T16:29:20.715Z,9.60
2018-06-11T16:31:48.759Z,9.75
2018-06-11T16:34:16.828Z,10.15
2018-06-11T16:36:44.963Z,10.58
2018-06-11T16:39:13.059Z,8.35
2018-06-11T16:41:41.088Z,9.95
2018-06-11T16:44:09.133Z,10.05
2018-06-11T16:46:37.319Z,8.95
2018-06-11T16:49:05.439Z,9.78
2018-06-11T16:51:33.443Z,8.95
2018-06-11T16:54:01.538Z,9.13
2018-06-11T16:56:29.789Z,9.35
2018-06-11T16:58:57.883Z,9.23
2018-06-11T17:01:26.015Z,9.78
2018-06-11T17:03:54.184Z,9.78
2018-06-11T17:06:22.295Z,9.73
2018-06-11T17:08:50.766Z,8.63
2018-06-11T17:11:18.917Z,9.05
2018-06-11T17:13:46.999Z,9.50
2018-06-11T17:16:15.110Z,9.80
2018-06-11T17:18:43.201Z,11.15
2018-06-11T17:21:11.366Z,10.10
2018-06-11T17:23:40.716Z,9.15
2018-06-11T17:26:08.908Z,9.28
2018-06-11T17:28:36.968Z,9.85
2018-06-11T17:31:05.136Z,9.33
2018-06-11T17:33:33.227Z,9.60
2018-06-11T17:36:01.301Z,9.25
2018-06-11T17:38:29.367Z,9.78
2018-06-11T17:40:57.455Z,8.25
2018-06-11T17:43:25.558Z,8.55
2018-06-11T17:45:53.691Z,8.30
2018-06-11T17:48:21.801Z,9.78
2018-06-11T17:50:50.863Z,8.63
2018-06-11T17:53:19.572Z,9.90
2018-06-11T17:55:47.633Z,9.30
2018-06-11T17:58:15.707Z,9.10
2018-06-11T18:00:45.381Z,9.93
2018-06-11T18:03:13.484Z,9.60
2018-06-11T18:05:41.561Z,8.58
2018-06-11T18:08:09.719Z,8.58
2018-06-11T18:10:37.811Z,8.03
2018-06-11T18:13:05.964Z,9.08
2018-06-11T18:15:34.413Z,7.70
2018-06-11T18:18:02.667Z,7.50
2018-06-11T18:20:30.780Z,7.05
2018-06-11T18:22:59.165Z,6.97
2018-06-11T18:25:27.276Z,6.15
2018-06-11T18:27:55.415Z,5.58
2018-06-11T18:30:23.512Z,5.65
2018-06-11T18:32:51.655Z,5.83
2018-06-11T18:35:19.764Z,5.78
2018-06-11T18:37:47.871Z,5.25
2018-06-11T18:40:16.057Z,5.58
2018-06-11T18:42:44.148Z,5.40
2018-06-11T18:45:12.219Z,5.65
2018-06-11T18:47:40.509Z,6.15
2018-06-11T18:50:08.593Z,5.40
2018-06-11T18:52:36.652Z,5.50
2018-06-11T18:55:04.971Z,4.92
2018-06-11T18:57:33.028Z,6.15
2018-06-11T19:00:01.215Z,5.53
2018-06-11T19:02:29.536Z,5.12
2018-06-11T19:04:58.691Z,4.70
2018-06-11T19:07:26.815Z,5.97
2018-06-11T19:09:54.911Z,5.40
2018-06-11T19:12:23.016Z,6.00
2018-06-11T19:14:51.087Z,6.07
2018-06-11T19:17:19.318Z,6.15
2018-06-11T19:19:47.352Z,6.03
2018-06-11T19:22:15.570Z,6.35
2018-06-11T19:24:43.609Z,6.15
2018-06-11T19:27:11.891Z,6.70
2018-06-11T19:29:40.124Z,6.67
2018-06-11T19:32:08.161Z,6.50
2018-06-11T19:34:36.564Z,6.80
2018-06-11T19:37:04.737Z,6.25
2018-06-11T19:39:32.963Z,7.15
2018-06-11T19:42:01.300Z,6.20
2018-06-11T19:44:29.537Z,6.22
2018-06-11T19:46:57.635Z,6.23
2018-06-11T19:49:25.767Z,6.57
2018-06-11T19:51:53.898Z,6.72
2018-06-11T19:54:22.034Z,6.78
2018-06-11T19:56:50.188Z,6.33
2018-06-11T19:59:18.613Z,6.63
2018-06-11T20:01:47.699Z,5.93
2018-06-11T20:04:15.741Z,7.53
2018-06-11T20:06:43.827Z,6.93
2018-06-11T20:09:11.961Z,6.47
2018-06-11T20:11:40.257Z,6.37
2018-06-11T20:14:08.315Z,6.40
2018-06-11T20:16:36.403Z,5.83
2018-06-11T20:19:04.526Z,6.53
2018-06-11T20:21:35.042Z,6.77
2018-06-11T20:24:06.533Z,5.60
2018-06-11T20:26:34.588Z,6.60
2018-06-11T20:29:02.723Z,6.33
2018-06-11T20:31:30.858Z,6.53
2018-06-11T20:34:00.231Z,7.70
2018-06-11T20:36:28.700Z,6.93
2018-06-11T20:38:56.791Z,7.33
2018-06-11T20:41:25.640Z,7.03
2018-06-11T20:43:53.849Z,7.07
2018-06-11T20:46:22.008Z,6.23
2018-06-11T20:48:50.255Z,7.57
2018-06-11T20:51:18.426Z,6.37
2018-06-11T20:53:46.601Z,6.87
2018-06-11T20:56:15.073Z,7.23
2018-06-11T20:58:45.419Z,7.37
2018-06-11T21:01:15.701Z,7.13
2018-06-11T21:03:46.929Z,8.53
2018-06-11T21:06:15.103Z,8.43
2018-06-11T21:08:43.256Z,8.70
2018-06-11T21:11:11.363Z,9.37
2018-06-11T21:13:39.983Z,8.93
2018-06-11T21:16:10.870Z,9.60
2018-06-11T21:18:38.940Z,9.43
2018-06-11T21:21:07.029Z,9.63
2018-06-11T21:23:36.096Z,10.57
2018-06-11T21:26:04.439Z,10.53
2018-06-11T21:28:32.574Z,10.40
2018-06-11T21:31:00.627Z,9.97
2018-06-11T21:33:28.843Z,10.43
2018-06-11T21:35:57.255Z,10.70
2018-06-11T21:38:26.708Z,10.60
2018-06-11T21:40:56.960Z,10.47
2018-06-11T21:43:25.066Z,10.73
2018-06-11T21:45:53.491Z,10.20
2018-06-11T21:48:22.139Z,10.70
2018-06-11T21:50:50.372Z,11.07
2018-06-11T21:53:18.694Z,10.23
2018-06-11T21:55:46.788Z,11.87
2018-06-11T21:58:15.024Z,10.40
2018-06-11T22:00:43.616Z,10.80
2018-06-11T22:03:11.689Z,11.53
2018-06-11T22:05:40.288Z,11.27
2018-06-11T22:08:08.535Z,11.03
2018-06-11T22:10:38.105Z,10.87
2018-06-11T22:13:06.824Z,12.07
2018-06-11T22:15:35.099Z,12.07
2018-06-11T22:18:03.365Z,13.07
2018-06-11T22:20:31.808Z,12.20
2018-06-11T22:23:00.119Z,13.40
2018-06-11T22:25:28.651Z,13.70
2018-06-11T22:27:56.883Z,12.87
2018-06-11T22:30:25.025Z,13.80
2018-06-11T22:32:53.083Z,14.13
2018-06-11T22:35:21.142Z,13.13
2018-06-11T22:37:49.229Z,14.10
2018-06-11T22:40:17.288Z,14.00
2018-06-11T22:42:45.339Z,13.60
2018-06-11T22:45:13.750Z,14.60
2018-06-11T22:47:41.819Z,13.07
2018-06-11T22:50:09.875Z,13.60
2018-06-11T22:52:38.027Z,13.27
2018-06-11T22:55:06.272Z,14.47
2018-06-11T22:57:34.459Z,14.60
2018-06-11T23:00:02.729Z,14.97
2018-06-11T23:02:30.868Z,14.80
2018-06-11T23:04:59.493Z,14.67
2018-06-11T23:07:28.463Z,14.43
2018-06-11T23:09:56.615Z,14.23
2018-06-11T23:12:24.727Z,13.73
2018-06-11T23:14:52.855Z,13.83
2018-06-11T23:17:20.927Z,14.30
2018-06-11T23:19:48.971Z,15.20
2018-06-11T23:22:17.041Z,13.40
2018-06-11T23:24:45.112Z,13.67
2018-06-11T23:27:13.160Z,14.43
2018-06-11T23:29:41.247Z,14.20
2018-06-11T23:32:09.372Z,12.93
2018-06-11T23:34:37.472Z,12.30
2018-06-11T23:37:05.615Z,12.30
2018-06-11T23:39:33.775Z,13.00
2018-06-11T23:42:02.060Z,13.33
2018-06-11T23:44:30.268Z,14.03
2018-06-11T23:46:58.417Z,13.30
2018-06-11T23:49:26.570Z,13.90
2018-06-11T23:51:54.663Z,12.20
2018-06-11T23:54:22.770Z,13.57
2018-06-11T23:56:50.948Z,12.97
2018-06-11T23:59:18.999Z,13.80
